Time;durP1;ratioP1;P1;durP2;ratioP2;P2;SDS_P1;SDS_P2;PMS_P1;PMS_P2;Temp;Humidity;BMP_temperature;BMP_pressure;BME280_temperature;BME280_humidity;BME280_pressure;Samples;Min_cycle;Max_cycle;Signal;HPM_P1;HPM_P2
2021/10/08 00:01:41;;;;;;;12.68;8.07;;;;;;;;;;5084872;28;20021;-70
2021/10/08 00:04:07;;;;;;;12.98;7.07;;;;;;;;;;5071649;28;20473;-70
2021/10/08 00:06:33;;;;;;;11.05;7.40;;;;;;;;;;5070224;28;20025;-71
2021/10/08 00:08:59;;;;;;;8.02;6.38;;;;;;;;;;5071341;28;20062;-70
2021/10/08 00:11:26;;;;;;;8.73;6.30;;;;;;;;;;5071064;28;20056;-70
2021/10/08 00:13:52;;;;;;;10.73;7.38;;;;;;;;;;5070389;28;20111;-69
2021/10/08 00:16:18;;;;;;;10.60;6.65;;;;;;;;;;5069731;28;20112;-69
2021/10/08 00:18:44;;;;;;;9.30;7.07;;;;;;;;;;5071090;28;20025;-69
2021/10/08 00:21:10;;;;;;;11.18;6.78;;;;;;;;;;5070920;28;20074;-69
2021/10/08 00:23:36;;;;;;;10.55;8.02;;;;;;;;;;5070234;28;20338;-69
2021/10/08 00:26:02;;;;;;;9.50;7.28;;;;;;;;;;5073823;28;20052;-68
2021/10/08 00:28:28;;;;;;;10.15;7.18;;;;;;;;;;5074693;28;20032;-69
2021/10/08 00:30:54;;;;;;;14.27;8.38;;;;;;;;;;5074609;28;20086;-69
2021/10/08 00:33:20;;;;;;;11.68;8.52;;;;;;;;;;5072339;28;20029;-69
2021/10/08 00:35:47;;;;;;;13.43;8.85;;;;;;;;;;5074367;28;20033;-69
2021/10/08 00:38:13;;;;;;;12.02;10.10;;;;;;;;;;5074579;28;20028;-69
2021/10/08 00:40:41;;;;;;;13.48;9.82;;;;;;;;;;5055449;28;20104;-69
2021/10/08 00:43:07;;;;;;;13.77;9.38;;;;;;;;;;5053620;28;20112;-69
2021/10/08 00:45:34;;;;;;;17.90;11.10;;;;;;;;;;5054306;28;20111;-69
2021/10/08 00:48:01;;;;;;;12.90;9.77;;;;;;;;;;5054456;28;20382;-69
2021/10/08 00:50:28;;;;;;;14.82;10.90;;;;;;;;;;5053006;28;20119;-69
2021/10/08 00:52:54;;;;;;;13.55;10.43;;;;;;;;;;5052228;28;20108;-69
2021/10/08 00:55:20;;;;;;;16.90;11.10;;;;;;;;;;5054080;28;20860;-69
2021/10/08 00:57:46;;;;;;;15.98;11.38;;;;;;;;;;5054372;28;20025;-69
2021/10/08 01:00:16;;;;;;;16.55;11.48;;;;;;;;;;5059307;28;20017;-69
2021/10/08 01:02:42;;;;;;;15.25;11.88;;;;;;;;;;5092368;28;20024;-69
2021/10/08 01:05:08;;;;;;;18.20;11.07;;;;;;;;;;5092743;28;20123;-69
2021/10/08 01:07:34;;;;;;;23.17;13.63;;;;;;;;;;5094324;28;20024;-69
2021/10/08 01:10:00;;;;;;;17.33;13.23;;;;;;;;;;5092853;28;20039;-69
2021/10/08 01:12:26;;;;;;;16.35;11.65;;;;;;;;;;5093372;28;20098;-70
2021/10/08 01:14:52;;;;;;;16.45;11.70;;;;;;;;;;5092832;28;20107;-70
2021/10/08 01:17:19;;;;;;;23.35;15.45;;;;;;;;;;5094007;28;20063;-70
2021/10/08 01:19:46;;;;;;;29.13;19.55;;;;;;;;;;5089728;28;20074;-70
2021/10/08 01:22:12;;;;;;;27.73;19.10;;;;;;;;;;5072362;28;20035;-70
2021/10/08 01:24:38;;;;;;;26.75;19.30;;;;;;;;;;5073852;28;20103;-70
2021/10/08 01:27:05;;;;;;;28.65;19.85;;;;;;;;;;5073786;28;20039;-70
2021/10/08 01:29:32;;;;;;;24.25;19.17;;;;;;;;;;5073829;28;20029;-70
2021/10/08 01:31:58;;;;;;;27.90;20.40;;;;;;;;;;5069870;28;20039;-70
2021/10/08 01:34:24;;;;;;;25.77;19.95;;;;;;;;;;5063986;28;20123;-70
2021/10/08 01:36:49;;;;;;;22.40;16.92;;;;;;;;;;5072092;28;20071;-70
2021/10/08 01:39:16;;;;;;;27.73;20.33;;;;;;;;;;5073637;28;20028;-71
2021/10/08 01:41:42;;;;;;;26.90;20.30;;;;;;;;;;5073598;28;20031;-70
2021/10/08 01:44:08;;;;;;;31.10;21.13;;;;;;;;;;5073333;28;20040;-70
2021/10/08 01:46:34;;;;;;;29.95;20.23;;;;;;;;;;5073384;28;20029;-70
2021/10/08 01:49:00;;;;;;;31.08;20.73;;;;;;;;;;5073395;28;20087;-70
2021/10/08 01:51:26;;;;;;;37.30;24.50;;;;;;;;;;5073253;28;20021;-70
2021/10/08 01:53:52;;;;;;;39.25;27.55;;;;;;;;;;5071707;28;20025;-70
2021/10/08 01:56:18;;;;;;;46.15;28.40;;;;;;;;;;5073198;28;20397;-70
2021/10/08 01:58:44;;;;;;;38.55;28.58;;;;;;;;;;5071815;28;20399;-70
2021/10/08 02:01:10;;;;;;;39.10;27.80;;;;;;;;;;5082327;28;20056;-70
2021/10/08 02:03:35;;;;;;;41.75;28.50;;;;;;;;;;5093231;28;20058;-70
2021/10/08 02:06:02;;;;;;;41.28;30.15;;;;;;;;;;5071292;28;20029;-70
2021/10/08 02:08:27;;;;;;;41.88;30.08;;;;;;;;;;5072234;28;20055;-70
2021/10/08 02:10:53;;;;;;;42.10;30.73;;;;;;;;;;5066909;28;20060;-70
2021/10/08 02:13:20;;;;;;;42.15;30.52;;;;;;;;;;5068003;28;20033;-70
2021/10/08 02:15:46;;;;;;;51.05;32.75;;;;;;;;;;5068184;28;20063;-70
2021/10/08 02:18:12;;;;;;;46.03;32.22;;;;;;;;;;5068167;28;20451;-70
2021/10/08 02:20:39;;;;;;;49.65;33.58;;;;;;;;;;5052655;28;20057;-70
2021/10/08 02:23:05;;;;;;;48.35;31.80;;;;;;;;;;5058418;28;20389;-70
2021/10/08 02:25:31;;;;;;;44.53;31.70;;;;;;;;;;5071292;28;20070;-70
2021/10/08 02:27:57;;;;;;;45.53;31.55;;;;;;;;;;5072576;28;20037;-70
2021/10/08 02:30:23;;;;;;;47.97;32.85;;;;;;;;;;5072642;28;20030;-70
2021/10/08 02:32:49;;;;;;;50.15;32.95;;;;;;;;;;5072232;28;20025;-70
2021/10/08 02:35:15;;;;;;;52.25;33.92;;;;;;;;;;5072342;28;20025;-70
2021/10/08 02:37:41;;;;;;;54.92;34.35;;;;;;;;;;5072438;28;20034;-70
2021/10/08 02:40:07;;;;;;;48.45;33.83;;;;;;;;;;5072364;28;20436;-70
2021/10/08 02:42:33;;;;;;;53.97;36.58;;;;;;;;;;5072134;28;20468;-70
2021/10/08 02:44:59;;;;;;;57.55;36.55;;;;;;;;;;5070888;28;20119;-70
2021/10/08 02:47:25;;;;;;;52.67;35.78;;;;;;;;;;5071726;28;20051;-70
2021/10/08 02:49:51;;;;;;;52.92;36.17;;;;;;;;;;5070831;28;20023;-70
2021/10/08 02:52:17;;;;;;;51.47;36.15;;;;;;;;;;5070721;28;20454;-69
2021/10/08 02:54:43;;;;;;;52.15;35.13;;;;;;;;;;5072112;28;20040;-70
2021/10/08 02:57:10;;;;;;;48.40;35.10;;;;;;;;;;5072091;28;20072;-70
2021/10/08 02:59:36;;;;;;;52.53;36.28;;;;;;;;;;5065909;28;20060;-70
2021/10/08 03:02:02;;;;;;;58.17;36.95;;;;;;;;;;5087251;28;20023;-69
2021/10/08 03:04:28;;;;;;;54.80;37.67;;;;;;;;;;5092057;28;20105;-70
2021/10/08 03:06:56;;;;;;;58.80;37.50;;;;;;;;;;5091982;28;20028;-70
2021/10/08 03:09:22;;;;;;;54.30;36.75;;;;;;;;;;5092082;28;20040;-69
2021/10/08 03:11:48;;;;;;;56.30;38.15;;;;;;;;;;5092001;28;20071;-71
2021/10/08 03:14:14;;;;;;;49.28;36.85;;;;;;;;;;5090945;28;20056;-71
2021/10/08 03:16:40;;;;;;;55.13;37.75;;;;;;;;;;5066944;28;20029;-70
2021/10/08 03:19:06;;;;;;;54.17;37.72;;;;;;;;;;5091302;28;20044;-70
2021/10/08 03:21:32;;;;;;;57.53;37.70;;;;;;;;;;5067514;28;20032;-71
2021/10/08 03:23:58;;;;;;;51.17;35.30;;;;;;;;;;5070296;28;20016;-71
2021/10/08 03:26:25;;;;;;;52.47;36.53;;;;;;;;;;5065084;28;20037;-70
2021/10/08 03:28:51;;;;;;;52.88;35.00;;;;;;;;;;5067364;28;21313;-71
2021/10/08 03:31:17;;;;;;;54.70;36.53;;;;;;;;;;5062355;28;20036;-71
2021/10/08 03:33:43;;;;;;;56.92;36.92;;;;;;;;;;5067682;28;20025;-70
2021/10/08 03:36:14;;;;;;;53.53;36.20;;;;;;;;;;5090532;28;20061;-70
2021/10/08 03:38:40;;;;;;;50.80;33.03;;;;;;;;;;5071060;28;20440;-69
2021/10/08 03:41:10;;;;;;;54.15;34.17;;;;;;;;;;5069091;28;20024;-70
2021/10/08 03:43:37;;;;;;;47.70;33.50;;;;;;;;;;5068120;28;20389;-71
2021/10/08 03:46:08;;;;;;;50.38;35.17;;;;;;;;;;5071403;28;20497;-71
2021/10/08 03:48:49;;;;;;;49.17;34.45;;;;;;;;;;5071486;28;20381;-71
2021/10/08 03:51:15;;;;;;;51.15;34.08;;;;;;;;;;5071580;28;20054;-70
2021/10/08 03:53:41;;;;;;;52.17;33.67;;;;;;;;;;5097628;28;20090;-70
2021/10/08 03:56:07;;;;;;;51.30;35.78;;;;;;;;;;5071407;28;20056;-70
2021/10/08 03:58:33;;;;;;;53.88;35.30;;;;;;;;;;5069534;28;20039;-71
2021/10/08 04:00:59;;;;;;;49.55;34.25;;;;;;;;;;5071983;28;20499;-70
2021/10/08 04:03:25;;;;;;;53.20;34.42;;;;;;;;;;5073113;28;20448;-71
2021/10/08 04:05:51;;;;;;;48.90;34.17;;;;;;;;;;5073124;28;20040;-70
2021/10/08 04:08:17;;;;;;;50.67;34.53;;;;;;;;;;5074447;28;20048;-71
2021/10/08 04:10:42;;;;;;;59.35;35.53;;;;;;;;;;5074831;28;20028;-72
2021/10/08 04:13:08;;;;;;;56.53;36.17;;;;;;;;;;5074004;28;20021;-70
2021/10/08 04:15:34;;;;;;;56.15;35.08;;;;;;;;;;5073856;28;20422;-70
2021/10/08 04:18:00;;;;;;;60.60;35.70;;;;;;;;;;5075223;28;20106;-70
2021/10/08 04:20:26;;;;;;;56.58;37.42;;;;;;;;;;5074021;28;20032;-70
2021/10/08 04:22:52;;;;;;;60.08;35.35;;;;;;;;;;5073985;28;20035;-71
2021/10/08 04:25:18;;;;;;;58.38;35.90;;;;;;;;;;5073488;28;20056;-71
2021/10/08 04:27:44;;;;;;;62.22;37.35;;;;;;;;;;5074597;28;20116;-70
2021/10/08 04:30:10;;;;;;;59.10;37.47;;;;;;;;;;5073172;28;20035;-70
2021/10/08 04:32:36;;;;;;;60.80;38.08;;;;;;;;;;5073613;28;20032;-69
2021/10/08 04:35:02;;;;;;;53.35;34.42;;;;;;;;;;5073602;28;20024;-71
2021/10/08 04:37:28;;;;;;;54.45;35.55;;;;;;;;;;5073335;28;20028;-70
2021/10/08 04:39:54;;;;;;;45.95;32.03;;;;;;;;;;5074805;28;20024;-70
2021/10/08 04:42:20;;;;;;;50.20;33.30;;;;;;;;;;5073104;28;20477;-69
2021/10/08 04:44:46;;;;;;;49.10;33.50;;;;;;;;;;5074502;28;20455;-70
2021/10/08 04:47:13;;;;;;;51.20;33.95;;;;;;;;;;5074388;28;20040;-70
2021/10/08 04:49:40;;;;;;;56.47;36.60;;;;;;;;;;5074256;28;20091;-69
2021/10/08 04:52:07;;;;;;;57.95;36.30;;;;;;;;;;5074211;28;20444;-71
2021/10/08 04:54:33;;;;;;;62.10;36.90;;;;;;;;;;5073927;28;20099;-70
2021/10/08 04:56:59;;;;;;;63.25;38.78;;;;;;;;;;5073919;28;20021;-69
2021/10/08 04:59:25;;;;;;;60.38;36.90;;;;;;;;;;5072674;28;20437;-71
2021/10/08 05:01:51;;;;;;;53.53;36.13;;;;;;;;;;5073967;28;20081;-70
2021/10/08 05:04:17;;;;;;;55.85;33.58;;;;;;;;;;5072516;28;20064;-70
2021/10/08 05:06:43;;;;;;;62.38;37.95;;;;;;;;;;5074793;28;20115;-70
2021/10/08 05:09:09;;;;;;;61.45;36.03;;;;;;;;;;5060592;28;20261;-69
2021/10/08 05:11:35;;;;;;;49.90;32.35;;;;;;;;;;5068021;28;20112;-70
2021/10/08 05:14:01;;;;;;;62.97;37.33;;;;;;;;;;5053024;28;20056;-70
2021/10/08 05:16:27;;;;;;;56.88;36.10;;;;;;;;;;5069046;28;20021;-71
2021/10/08 05:18:53;;;;;;;62.35;36.30;;;;;;;;;;5053416;28;20477;-70
2021/10/08 05:21:19;;;;;;;52.58;35.00;;;;;;;;;;5053460;28;20028;-69
2021/10/08 05:23:45;;;;;;;62.95;36.63;;;;;;;;;;5068515;28;20036;-69
2021/10/08 05:26:11;;;;;;;56.13;35.88;;;;;;;;;;5052900;28;20114;-70
2021/10/08 05:28:37;;;;;;;64.82;36.65;;;;;;;;;;5053248;28;20040;-70
2021/10/08 05:31:05;;;;;;;71.57;39.83;;;;;;;;;;5068644;28;20029;-68
2021/10/08 05:33:31;;;;;;;67.97;39.83;;;;;;;;;;5052679;28;20066;-69
2021/10/08 05:35:57;;;;;;;70.05;39.13;;;;;;;;;;5068904;28;20028;-70
2021/10/08 05:38:23;;;;;;;68.30;40.47;;;;;;;;;;5053348;28;20025;-70
2021/10/08 05:40:52;;;;;;;67.90;40.88;;;;;;;;;;5052458;28;20079;-69
2021/10/08 05:43:18;;;;;;;73.65;41.30;;;;;;;;;;5067930;28;20025;-70
2021/10/08 05:45:44;;;;;;;68.78;39.88;;;;;;;;;;5052707;28;20032;-70
2021/10/08 05:48:10;;;;;;;71.25;40.83;;;;;;;;;;5052623;28;20040;-69
2021/10/08 05:50:37;;;;;;;72.53;40.55;;;;;;;;;;5052762;28;20036;-69
2021/10/08 05:53:03;;;;;;;65.70;39.35;;;;;;;;;;5056301;28;20032;-69
2021/10/08 05:55:30;;;;;;;74.47;41.92;;;;;;;;;;5053367;28;20032;-70
2021/10/08 05:57:56;;;;;;;68.00;40.40;;;;;;;;;;5066747;28;20031;-69
2021/10/08 06:00:22;;;;;;;68.95;40.28;;;;;;;;;;5066149;28;20028;-70
2021/10/08 06:02:48;;;;;;;63.28;38.90;;;;;;;;;;5091698;28;20107;-72
2021/10/08 06:05:14;;;;;;;68.95;38.53;;;;;;;;;;5091537;28;20492;-70
2021/10/08 06:07:40;;;;;;;67.35;40.78;;;;;;;;;;5092385;28;20453;-69
2021/10/08 06:10:06;;;;;;;68.45;39.10;;;;;;;;;;5091456;28;20461;-71
2021/10/08 06:12:32;;;;;;;61.95;38.55;;;;;;;;;;5092502;28;20469;-72
2021/10/08 06:14:58;;;;;;;61.85;36.97;;;;;;;;;;5073937;28;20035;-69
2021/10/08 06:17:24;;;;;;;59.38;36.63;;;;;;;;;;5070761;28;20028;-70
2021/10/08 06:19:50;;;;;;;71.63;37.40;;;;;;;;;;5072075;28;20033;-70
2021/10/08 06:22:16;;;;;;;60.17;36.53;;;;;;;;;;5069961;28;20031;-70
2021/10/08 06:24:42;;;;;;;62.63;36.83;;;;;;;;;;5070651;28;20055;-70
2021/10/08 06:27:08;;;;;;;61.72;35.45;;;;;;;;;;5071586;28;20036;-71
2021/10/08 06:29:34;;;;;;;62.47;37.88;;;;;;;;;;5071857;28;20173;-72
2021/10/08 06:32:00;;;;;;;70.38;38.80;;;;;;;;;;5071615;28;20070;-70
2021/10/08 06:34:26;;;;;;;66.57;37.17;;;;;;;;;;5071750;28;20036;-71
2021/10/08 06:36:52;;;;;;;63.05;38.15;;;;;;;;;;5069996;28;20024;-69
2021/10/08 06:39:18;;;;;;;66.10;40.40;;;;;;;;;;5069703;28;20082;-69
2021/10/08 06:41:44;;;;;;;63.08;37.08;;;;;;;;;;5070913;28;20024;-70
2021/10/08 06:44:10;;;;;;;57.80;35.90;;;;;;;;;;5071468;28;20029;-68
2021/10/08 06:46:36;;;;;;;64.28;37.00;;;;;;;;;;5071859;28;20029;-69
2021/10/08 06:49:02;;;;;;;55.83;36.95;;;;;;;;;;5070536;28;20029;-69
2021/10/08 06:51:28;;;;;;;63.05;39.20;;;;;;;;;;5070565;28;20064;-69
2021/10/08 06:53:54;;;;;;;54.60;35.28;;;;;;;;;;5071947;28;20020;-69
2021/10/08 06:56:19;;;;;;;63.92;36.35;;;;;;;;;;5071295;28;20532;-68
2021/10/08 06:58:45;;;;;;;61.83;37.92;;;;;;;;;;5066740;28;20070;-69
2021/10/08 07:01:11;;;;;;;56.90;37.13;;;;;;;;;;5075197;28;20063;-71
2021/10/08 07:03:37;;;;;;;61.22;37.33;;;;;;;;;;5089744;28;20028;-70
2021/10/08 07:06:03;;;;;;;62.30;38.65;;;;;;;;;;5072044;28;20037;-72
2021/10/08 07:08:29;;;;;;;57.80;37.40;;;;;;;;;;5069660;28;20401;-72
2021/10/08 07:10:55;;;;;;;61.50;38.38;;;;;;;;;;5070113;28;20071;-71
2021/10/08 07:13:21;;;;;;;63.08;38.95;;;;;;;;;;5069604;28;20033;-71
2021/10/08 07:15:48;;;;;;;59.28;37.20;;;;;;;;;;5069032;28;20027;-71
2021/10/08 07:18:17;;;;;;;60.45;37.78;;;;;;;;;;5070963;28;20338;-70
2021/10/08 07:20:45;;;;;;;58.78;37.97;;;;;;;;;;5069894;28;20074;-69
2021/10/08 07:23:11;;;;;;;60.90;36.10;;;;;;;;;;5071435;28;20028;-73
2021/10/08 07:25:37;;;;;;;56.28;36.10;;;;;;;;;;5070939;28;20027;-71
2021/10/08 07:28:03;;;;;;;61.25;34.28;;;;;;;;;;5067869;28;20052;-70
2021/10/08 07:30:29;;;;;;;57.20;36.80;;;;;;;;;;5066685;28;20021;-71
2021/10/08 07:32:55;;;;;;;60.08;35.10;;;;;;;;;;5069410;28;20496;-72
2021/10/08 07:35:21;;;;;;;62.08;35.70;;;;;;;;;;5068151;28;20028;-70
2021/10/08 07:37:48;;;;;;;54.85;34.65;;;;;;;;;;5068146;28;20048;-70
2021/10/08 07:40:14;;;;;;;57.33;34.85;;;;;;;;;;5069883;28;20444;-71
2021/10/08 07:42:41;;;;;;;52.03;34.90;;;;;;;;;;5069167;28;20056;-70
2021/10/08 07:45:08;;;;;;;52.83;34.33;;;;;;;;;;5070422;28;20070;-70
2021/10/08 07:47:34;;;;;;;54.35;33.92;;;;;;;;;;5069014;28;20027;-70
2021/10/08 07:50:00;;;;;;;56.67;33.97;;;;;;;;;;5068758;28;20477;-71
2021/10/08 07:52:26;;;;;;;55.88;34.88;;;;;;;;;;5069781;28;20033;-69
2021/10/08 07:54:52;;;;;;;61.38;36.30;;;;;;;;;;5067651;28;20029;-70
2021/10/08 07:57:18;;;;;;;52.63;34.30;;;;;;;;;;5051049;28;20143;-69
2021/10/08 07:59:44;;;;;;;52.78;34.60;;;;;;;;;;5063656;28;20466;-70
2021/10/08 08:02:10;;;;;;;50.42;32.90;;;;;;;;;;5050907;28;20028;-71
2021/10/08 08:04:37;;;;;;;53.63;32.33;;;;;;;;;;5056402;28;20028;-70
2021/10/08 08:07:04;;;;;;;45.65;31.38;;;;;;;;;;5069459;28;20029;-70
2021/10/08 08:09:29;;;;;;;51.05;32.67;;;;;;;;;;5071000;28;20069;-70
2021/10/08 08:11:55;;;;;;;59.30;32.30;;;;;;;;;;5071252;28;20021;-71
2021/10/08 08:14:21;;;;;;;46.95;31.25;;;;;;;;;;5069658;28;20027;-70
2021/10/08 08:16:47;;;;;;;48.55;31.60;;;;;;;;;;5070905;28;20024;-69
2021/10/08 08:19:14;;;;;;;50.95;31.10;;;;;;;;;;5069476;28;20028;-69
2021/10/08 08:21:41;;;;;;;51.90;32.33;;;;;;;;;;5070780;28;20048;-70
2021/10/08 08:24:07;;;;;;;44.42;27.95;;;;;;;;;;5070800;28;20559;-70
2021/10/08 08:26:32;;;;;;;47.78;29.40;;;;;;;;;;5069550;28;20025;-70
2021/10/08 08:28:58;;;;;;;41.47;24.80;;;;;;;;;;5069635;28;20036;-69
2021/10/08 08:31:24;;;;;;;35.60;22.23;;;;;;;;;;5070834;28;20024;-70
2021/10/08 08:33:50;;;;;;;42.75;21.92;;;;;;;;;;5070347;28;20029;-70
2021/10/08 08:36:16;;;;;;;40.42;20.20;;;;;;;;;;5070771;28;20254;-70
2021/10/08 08:38:42;;;;;;;34.03;18.70;;;;;;;;;;5070631;28;20032;-70
2021/10/08 08:41:08;;;;;;;31.90;18.33;;;;;;;;;;5069740;28;20024;-70
2021/10/08 08:43:34;;;;;;;38.13;18.58;;;;;;;;;;5070787;28;20067;-70
2021/10/08 08:46:00;;;;;;;31.38;18.33;;;;;;;;;;5072301;28;20033;-70
2021/10/08 08:48:27;;;;;;;36.28;18.23;;;;;;;;;;5074243;28;20400;-69
2021/10/08 08:50:53;;;;;;;39.70;18.40;;;;;;;;;;5072969;28;20060;-70
2021/10/08 08:53:21;;;;;;;33.85;18.15;;;;;;;;;;5073867;28;20060;-70
2021/10/08 08:55:47;;;;;;;27.42;16.40;;;;;;;;;;5074352;28;20021;-70
2021/10/08 08:58:13;;;;;;;28.63;15.90;;;;;;;;;;5069455;28;20025;-70
2021/10/08 09:00:40;;;;;;;32.75;13.98;;;;;;;;;;5052770;28;20025;-70
2021/10/08 09:03:07;;;;;;;41.10;13.93;;;;;;;;;;5053498;28;20025;-70
2021/10/08 09:05:34;;;;;;;28.92;13.05;;;;;;;;;;5065641;28;20075;-70
2021/10/08 09:08:04;;;;;;;32.50;13.85;;;;;;;;;;5072805;28;20036;-70
2021/10/08 09:10:31;;;;;;;42.42;13.73;;;;;;;;;;5074098;28;20024;-70
2021/10/08 09:12:58;;;;;;;28.67;14.55;;;;;;;;;;5072380;28;20025;-70
2021/10/08 09:15:28;;;;;;;38.83;14.15;;;;;;;;;;5073886;28;20025;-71
2021/10/08 09:18:06;;;;;;;31.88;13.00;;;;;;;;;;5073926;28;20021;-71
2021/10/08 09:20:32;;;;;;;31.48;11.70;;;;;;;;;;5074125;28;20031;-71
2021/10/08 09:22:58;;;;;;;27.63;13.73;;;;;;;;;;5071990;28;20025;-71
2021/10/08 09:25:33;;;;;;;31.88;13.95;;;;;;;;;;5073632;28;20032;-69
2021/10/08 09:28:06;;;;;;;32.03;13.75;;;;;;;;;;5073579;28;20017;-70
2021/10/08 09:30:35;;;;;;;31.48;13.43;;;;;;;;;;5073484;28;20021;-71
2021/10/08 09:33:01;;;;;;;42.85;14.63;;;;;;;;;;5073414;28;20086;-70
2021/10/08 09:35:27;;;;;;;38.22;14.35;;;;;;;;;;5071670;28;20032;-70
2021/10/08 09:38:02;;;;;;;33.58;13.93;;;;;;;;;;5073130;28;20026;-70
2021/10/08 09:40:33;;;;;;;34.92;14.18;;;;;;;;;;5072031;28;20047;-70
2021/10/08 09:43:00;;;;;;;32.63;14.18;;;;;;;;;;5072998;28;20552;-70
2021/10/08 09:45:55;;;;;;;28.20;14.10;;;;;;;;;;5073257;28;20029;-70
2021/10/08 09:48:22;;;;;;;39.55;14.27;;;;;;;;;;5073212;28;20047;-70
2021/10/08 09:50:59;;;;;;;34.08;13.45;;;;;;;;;;5072022;28;20028;-70
2021/10/08 09:53:25;;;;;;;24.90;12.82;;;;;;;;;;5072776;28;20496;-70
2021/10/08 09:55:52;;;;;;;30.65;13.55;;;;;;;;;;5072700;28;20021;-70
2021/10/08 09:58:20;;;;;;;39.05;13.75;;;;;;;;;;5072871;28;20017;-70
2021/10/08 10:00:49;;;;;;;23.58;13.98;;;;;;;;;;5072998;28;20021;-70
2021/10/08 10:03:16;;;;;;;31.15;14.38;;;;;;;;;;5072304;28;20029;-70
2021/10/08 10:05:42;;;;;;;33.72;12.95;;;;;;;;;;5072555;28;20404;-70
2021/10/08 10:08:09;;;;;;;35.08;14.50;;;;;;;;;;5072253;28;20074;-69
2021/10/08 10:10:37;;;;;;;29.85;12.50;;;;;;;;;;5067880;28;20029;-70
2021/10/08 10:13:04;;;;;;;27.10;12.07;;;;;;;;;;5050794;28;20033;-70
2021/10/08 10:15:30;;;;;;;36.42;13.75;;;;;;;;;;5063807;28;20473;-71
2021/10/08 10:17:57;;;;;;;30.77;13.65;;;;;;;;;;5072375;28;20028;-70
2021/10/08 10:20:23;;;;;;;34.63;12.80;;;;;;;;;;5072569;28;20051;-70
2021/10/08 10:22:49;;;;;;;25.98;12.82;;;;;;;;;;5070664;28;20578;-69
2021/10/08 10:25:16;;;;;;;35.47;12.35;;;;;;;;;;5069188;28;20557;-70
2021/10/08 10:27:43;;;;;;;27.98;12.30;;;;;;;;;;5070652;28;20065;-71
2021/10/08 10:30:10;;;;;;;28.50;12.68;;;;;;;;;;5070446;28;20558;-70
2021/10/08 10:32:36;;;;;;;30.65;11.50;;;;;;;;;;5070246;28;20036;-68
2021/10/08 10:35:03;;;;;;;31.50;12.88;;;;;;;;;;5068637;28;20174;-70
2021/10/08 10:37:38;;;;;;;24.38;11.30;;;;;;;;;;5069367;28;20020;-71
2021/10/08 10:40:23;;;;;;;22.55;10.70;;;;;;;;;;5072264;28;20393;-69
2021/10/08 10:43:15;;;;;;;23.13;10.77;;;;;;;;;;5071939;28;20078;-70
2021/10/08 10:45:47;;;;;;;24.15;11.25;;;;;;;;;;5071024;28;20029;-71
2021/10/08 10:48:22;;;;;;;27.23;10.30;;;;;;;;;;5070634;28;20025;-71
2021/10/08 10:51:09;;;;;;;22.55;10.07;;;;;;;;;;5072091;28;20027;-71
2021/10/08 10:53:48;;;;;;;26.77;9.57;;;;;;;;;;5071723;28;20523;-69
2021/10/08 10:56:33;;;;;;;20.50;10.20;;;;;;;;;;5071796;28;20020;-69
2021/10/08 10:59:17;;;;;;;20.65;9.07;;;;;;;;;;5072024;28;20025;-71
2021/10/08 11:02:03;;;;;;;23.08;9.10;;;;;;;;;;5070447;28;20020;-70
2021/10/08 11:04:29;;;;;;;21.92;8.35;;;;;;;;;;5070824;28;20527;-70
2021/10/08 11:07:11;;;;;;;22.98;8.73;;;;;;;;;;5078239;22;20178;-67
2021/10/08 11:09:38;;;;;;;14.77;8.50;;;;;;;;;;5051672;28;20071;-67
2021/10/08 11:12:23;;;;;;;27.90;8.25;;;;;;;;;;5051411;28;20512;-67
2021/10/08 11:14:49;;;;;;;20.30;8.75;;;;;;;;;;5052582;28;20091;-68
2021/10/08 11:17:34;;;;;;;17.80;8.32;;;;;;;;;;5033496;28;20029;-67
2021/10/08 11:20:00;;;;;;;22.13;8.23;;;;;;;;;;5033520;28;20497;-67
2021/10/08 11:22:53;;;;;;;20.48;8.20;;;;;;;;;;5051155;28;20025;-67
2021/10/08 11:25:19;;;;;;;21.50;7.85;;;;;;;;;;5048090;28;20037;-67
2021/10/08 11:27:48;;;;;;;22.63;7.95;;;;;;;;;;5033303;28;20025;-66
2021/10/08 11:30:14;;;;;;;14.90;7.40;;;;;;;;;;5051412;28;20063;-68
2021/10/08 11:32:47;;;;;;;16.67;7.28;;;;;;;;;;5051306;28;20083;-67
2021/10/08 11:35:18;;;;;;;17.80;7.35;;;;;;;;;;5051168;28;20025;-67
2021/10/08 11:37:45;;;;;;;14.23;7.50;;;;;;;;;;5051247;28;20025;-67
2021/10/08 11:40:14;;;;;;;20.38;7.80;;;;;;;;;;5051314;28;20017;-67
2021/10/08 11:42:47;;;;;;;23.95;8.45;;;;;;;;;;5051160;28;20016;-67
2021/10/08 11:45:16;;;;;;;17.08;8.02;;;;;;;;;;5051373;28;20013;-67
2021/10/08 11:47:49;;;;;;;21.85;9.40;;;;;;;;;;5051199;28;20028;-67
2021/10/08 11:50:44;;;;;;;22.88;9.00;;;;;;;;;;5048695;28;20475;-67
2021/10/08 11:53:11;;;;;;;21.95;8.77;;;;;;;;;;5048897;28;20437;-70
2021/10/08 11:55:39;;;;;;;27.80;9.20;;;;;;;;;;5033283;28;20393;-67
2021/10/08 11:58:11;;;;;;;21.67;8.85;;;;;;;;;;5034002;28;20104;-67
2021/10/08 12:00:37;;;;;;;21.85;7.55;;;;;;;;;;5051149;28;20017;-66
2021/10/08 12:03:06;;;;;;;19.95;8.45;;;;;;;;;;5033136;28;20371;-66
2021/10/08 12:05:45;;;;;;;20.20;8.82;;;;;;;;;;5051102;28;20100;-66
2021/10/08 12:08:16;;;;;;;18.60;8.15;;;;;;;;;;5050606;28;20033;-67
2021/10/08 12:11:02;;;;;;;21.38;8.60;;;;;;;;;;5049642;28;20420;-67
2021/10/08 12:13:35;;;;;;;19.50;8.90;;;;;;;;;;5050769;28;20025;-67
2021/10/08 12:16:01;;;;;;;17.27;7.93;;;;;;;;;;5032730;28;20029;-67
2021/10/08 12:18:27;;;;;;;22.77;8.90;;;;;;;;;;5050781;28;20059;-67
2021/10/08 12:21:07;;;;;;;23.60;7.85;;;;;;;;;;5052358;28;20025;-67
2021/10/08 12:23:33;;;;;;;20.25;8.25;;;;;;;;;;5052450;28;20024;-67
2021/10/08 12:25:59;;;;;;;22.88;8.23;;;;;;;;;;5054397;28;20055;-67
2021/10/08 12:28:25;;;;;;;13.18;7.10;;;;;;;;;;5035533;28;20025;-67
2021/10/08 12:30:55;;;;;;;19.75;7.03;;;;;;;;;;5053838;28;20532;-67
2021/10/08 12:33:31;;;;;;;17.00;7.22;;;;;;;;;;5052930;28;20136;-67
2021/10/08 12:36:31;;;;;;;18.38;6.82;;;;;;;;;;5052616;28;20112;-67
2021/10/08 12:39:15;;;;;;;14.50;7.30;;;;;;;;;;5021400;28;20033;-67
2021/10/08 12:41:51;;;;;;;12.93;6.45;;;;;;;;;;5053520;28;20474;-67
2021/10/08 12:44:23;;;;;;;19.23;7.10;;;;;;;;;;5052289;28;20021;-67
2021/10/08 12:47:13;;;;;;;12.90;6.30;;;;;;;;;;5052342;28;20100;-67
2021/10/08 12:49:49;;;;;;;20.17;6.90;;;;;;;;;;5050825;28;20059;-67
2021/10/08 12:52:16;;;;;;;17.10;7.00;;;;;;;;;;5047115;28;20494;-67
2021/10/08 12:54:43;;;;;;;20.80;6.43;;;;;;;;;;5032294;28;20109;-67
2021/10/08 12:57:09;;;;;;;14.20;5.65;;;;;;;;;;5032444;28;20030;-67
2021/10/08 12:59:44;;;;;;;17.45;6.38;;;;;;;;;;5034338;28;20025;-66
2021/10/08 13:02:10;;;;;;;14.98;6.30;;;;;;;;;;5033704;28;20033;-66
2021/10/08 13:04:40;;;;;;;16.98;6.70;;;;;;;;;;5039646;28;20037;-67
2021/10/08 13:07:21;;;;;;;14.32;5.80;;;;;;;;;;5052504;28;20413;-67
2021/10/08 13:10:06;;;;;;;11.45;5.13;;;;;;;;;;5053024;28;20162;-67
2021/10/08 13:12:41;;;;;;;13.23;5.60;;;;;;;;;;5053299;28;20029;-67
2021/10/08 13:15:11;;;;;;;16.83;6.07;;;;;;;;;;5053828;28;20396;-67
2021/10/08 13:17:38;;;;;;;9.63;5.03;;;;;;;;;;5053663;28;20100;-67
2021/10/08 13:20:05;;;;;;;8.85;4.65;;;;;;;;;;5052103;28;20040;-66
2021/10/08 13:22:32;;;;;;;14.18;6.13;;;;;;;;;;5051301;28;20049;-66
2021/10/08 13:24:58;;;;;;;8.52;4.85;;;;;;;;;;5050123;28;20051;-67
2021/10/08 13:27:25;;;;;;;8.93;5.07;;;;;;;;;;5051672;28;20037;-67
2021/10/08 13:29:51;;;;;;;11.27;4.45;;;;;;;;;;5051773;28;20017;-66
2021/10/08 13:32:17;;;;;;;8.43;4.60;;;;;;;;;;5049371;28;20119;-67
2021/10/08 13:34:45;;;;;;;10.52;4.22;;;;;;;;;;5051801;28;20151;-67
2021/10/08 13:37:11;;;;;;;10.85;4.53;;;;;;;;;;5052754;28;20021;-67
2021/10/08 13:39:38;;;;;;;10.77;4.55;;;;;;;;;;5052602;28;20028;-68
2021/10/08 13:42:04;;;;;;;12.38;5.05;;;;;;;;;;5051674;28;20028;-68
2021/10/08 13:44:30;;;;;;;14.68;5.47;;;;;;;;;;5050276;28;20045;-67
2021/10/08 13:46:56;;;;;;;7.70;4.22;;;;;;;;;;5052782;28;20394;-68
2021/10/08 13:49:22;;;;;;;15.13;4.28;;;;;;;;;;5053238;28;20021;-68
2021/10/08 13:51:48;;;;;;;7.55;4.30;;;;;;;;;;5053210;28;20474;-68
2021/10/08 13:54:14;;;;;;;12.52;4.25;;;;;;;;;;5032968;28;20040;-68
2021/10/08 13:56:45;;;;;;;13.02;4.30;;;;;;;;;;5033244;28;20028;-68
2021/10/08 13:59:11;;;;;;;14.63;4.47;;;;;;;;;;5033323;28;20025;-68
2021/10/08 14:01:43;;;;;;;11.60;4.72;;;;;;;;;;5015088;28;20562;-68
2021/10/08 14:04:35;;;;;;;9.73;4.60;;;;;;;;;;5034788;28;20029;-67
2021/10/08 14:07:08;;;;;;;11.23;4.85;;;;;;;;;;5052645;28;20044;-67
2021/10/08 14:12:19;;;;;;;9.98;4.95;;;;;;;;;;5052469;28;20040;-67
2021/10/08 14:14:45;;;;;;;8.85;4.30;;;;;;;;;;5052532;28;20386;-67
2021/10/08 14:17:11;;;;;;;7.10;3.83;;;;;;;;;;5052278;28;20017;-67
2021/10/08 14:19:37;;;;;;;8.30;4.63;;;;;;;;;;5050868;28;20056;-69
2021/10/08 14:22:03;;;;;;;8.43;4.25;;;;;;;;;;5050864;28;20021;-67
2021/10/08 14:24:29;;;;;;;7.82;4.40;;;;;;;;;;5052611;28;20029;-68
2021/10/08 14:26:55;;;;;;;9.45;5.05;;;;;;;;;;5051076;28;20075;-68
2021/10/08 14:29:21;;;;;;;7.68;4.40;;;;;;;;;;5052801;28;20037;-68